sensor_id;sensor_type;location;lat;lon;timestamp;P1;durP1;ratioP1;P2;durP2;ratioP2
54157;SDS011;40065;49.894;10.358;2022-08-25T00:00:31;8.50;;;6.40;;
54157;SDS011;40065;49.894;10.358;2022-08-25T00:05:34;8.93;;;6.28;;
54157;SDS011;40065;49.894;10.358;2022-08-25T00:10:37;6.78;;;6.00;;
54157;SDS011;40065;49.894;10.358;2022-08-25T00:15:39;7.13;;;5.80;;
54157;SDS011;40065;49.894;10.358;2022-08-25T00:20:43;7.55;;;5.75;;
54157;SDS011;40065;49.894;10.358;2022-08-25T00:25:49;7.78;;;6.47;;
54157;SDS011;40065;49.894;10.358;2022-08-25T00:30:51;8.40;;;6.40;;
54157;SDS011;40065;49.894;10.358;2022-08-25T00:35:53;10.55;;;7.43;;
54157;SDS011;40065;49.894;10.358;2022-08-25T00:40:56;10.57;;;8.35;;
54157;SDS011;40065;49.894;10.358;2022-08-25T00:46:08;10.65;;;8.35;;
54157;SDS011;40065;49.894;10.358;2022-08-25T00:51:12;9.27;;;7.15;;
54157;SDS011;40065;49.894;10.358;2022-08-25T00:56:19;8.80;;;7.32;;
54157;SDS011;40065;49.894;10.358;2022-08-25T01:01:22;9.93;;;7.30;;
54157;SDS011;40065;49.894;10.358;2022-08-25T01:06:24;8.95;;;6.95;;
54157;SDS011;40065;49.894;10.358;2022-08-25T01:11:28;9.50;;;7.03;;
54157;SDS011;40065;49.894;10.358;2022-08-25T01:16:30;11.25;;;7.60;;
54157;SDS011;40065;49.894;10.358;2022-08-25T01:21:38;8.50;;;6.97;;
54157;SDS011;40065;49.894;10.358;2022-08-25T01:26:44;9.25;;;7.35;;
54157;SDS011;40065;49.894;10.358;2022-08-25T01:31:49;8.55;;;7.03;;
54157;SDS011;40065;49.894;10.358;2022-08-25T01:36:55;10.13;;;7.45;;
54157;SDS011;40065;49.894;10.358;2022-08-25T01:47:03;9.40;;;7.65;;
54157;SDS011;40065;49.894;10.358;2022-08-25T01:52:11;8.67;;;7.03;;
54157;SDS011;40065;49.894;10.358;2022-08-25T01:57:22;10.98;;;7.63;;
54157;SDS011;40065;49.894;10.358;2022-08-25T02:02:24;9.70;;;7.93;;
54157;SDS011;40065;49.894;10.358;2022-08-25T02:07:26;11.68;;;8.18;;
54157;SDS011;40065;49.894;10.358;2022-08-25T02:12:28;10.75;;;8.50;;
54157;SDS011;40065;49.894;10.358;2022-08-25T02:17:34;9.05;;;7.70;;
54157;SDS011;40065;49.894;10.358;2022-08-25T02:22:37;9.90;;;8.20;;
54157;SDS011;40065;49.894;10.358;2022-08-25T02:27:40;10.00;;;7.90;;
54157;SDS011;40065;49.894;10.358;2022-08-25T02:32:42;11.13;;;7.65;;
54157;SDS011;40065;49.894;10.358;2022-08-25T02:37:44;11.15;;;8.95;;
54157;SDS011;40065;49.894;10.358;2022-08-25T02:42:46;11.02;;;8.88;;
54157;SDS011;40065;49.894;10.358;2022-08-25T02:47:49;12.57;;;9.77;;
54157;SDS011;40065;49.894;10.358;2022-08-25T02:52:51;10.13;;;7.90;;
54157;SDS011;40065;49.894;10.358;2022-08-25T02:57:52;9.70;;;8.05;;
54157;SDS011;40065;49.894;10.358;2022-08-25T03:02:54;13.00;;;9.00;;
54157;SDS011;40065;49.894;10.358;2022-08-25T03:07:56;12.48;;;8.57;;
54157;SDS011;40065;49.894;10.358;2022-08-25T03:12:58;13.15;;;9.20;;
54157;SDS011;40065;49.894;10.358;2022-08-25T03:17:59;12.40;;;8.45;;
54157;SDS011;40065;49.894;10.358;2022-08-25T03:23:04;9.68;;;7.40;;
54157;SDS011;40065;49.894;10.358;2022-08-25T03:28:06;10.48;;;7.82;;
54157;SDS011;40065;49.894;10.358;2022-08-25T03:33:09;9.80;;;7.88;;
54157;SDS011;40065;49.894;10.358;2022-08-25T03:38:11;10.60;;;7.55;;
54157;SDS011;40065;49.894;10.358;2022-08-25T03:43:13;9.95;;;7.82;;
54157;SDS011;40065;49.894;10.358;2022-08-25T03:48:15;11.10;;;7.75;;
54157;SDS011;40065;49.894;10.358;2022-08-25T03:53:18;10.07;;;7.85;;
54157;SDS011;40065;49.894;10.358;2022-08-25T03:58:20;9.85;;;7.80;;
54157;SDS011;40065;49.894;10.358;2022-08-25T04:03:22;12.38;;;8.20;;
54157;SDS011;40065;49.894;10.358;2022-08-25T04:08:24;11.20;;;8.02;;
54157;SDS011;40065;49.894;10.358;2022-08-25T04:13:25;27.50;;;13.02;;
54157;SDS011;40065;49.894;10.358;2022-08-25T04:18:27;12.00;;;8.20;;
54157;SDS011;40065;49.894;10.358;2022-08-25T04:23:31;10.65;;;7.43;;
54157;SDS011;40065;49.894;10.358;2022-08-25T04:28:33;12.68;;;9.75;;
54157;SDS011;40065;49.894;10.358;2022-08-25T04:33:35;13.98;;;9.77;;
54157;SDS011;40065;49.894;10.358;2022-08-25T04:38:42;16.40;;;10.95;;
54157;SDS011;40065;49.894;10.358;2022-08-25T04:43:44;12.90;;;10.13;;
54157;SDS011;40065;49.894;10.358;2022-08-25T04:48:47;12.30;;;9.18;;
54157;SDS011;40065;49.894;10.358;2022-08-25T04:53:50;13.60;;;9.48;;
54157;SDS011;40065;49.894;10.358;2022-08-25T04:58:53;14.75;;;11.32;;
54157;SDS011;40065;49.894;10.358;2022-08-25T05:03:57;16.38;;;11.27;;
54157;SDS011;40065;49.894;10.358;2022-08-25T05:09:01;12.38;;;9.70;;
54157;SDS011;40065;49.894;10.358;2022-08-25T05:14:05;14.45;;;10.48;;
54157;SDS011;40065;49.894;10.358;2022-08-25T05:19:11;15.48;;;10.40;;
54157;SDS011;40065;49.894;10.358;2022-08-25T05:24:13;12.43;;;9.38;;
54157;SDS011;40065;49.894;10.358;2022-08-25T05:29:17;14.30;;;11.95;;
54157;SDS011;40065;49.894;10.358;2022-08-25T05:34:19;14.80;;;10.38;;
54157;SDS011;40065;49.894;10.358;2022-08-25T05:39:21;16.48;;;10.90;;
54157;SDS011;40065;49.894;10.358;2022-08-25T05:44:27;12.50;;;10.70;;
54157;SDS011;40065;49.894;10.358;2022-08-25T05:49:28;14.00;;;10.05;;
54157;SDS011;40065;49.894;10.358;2022-08-25T05:54:30;12.32;;;9.52;;
54157;SDS011;40065;49.894;10.358;2022-08-25T05:59:32;14.00;;;8.10;;
54157;SDS011;40065;49.894;10.358;2022-08-25T06:04:34;15.05;;;8.38;;
54157;SDS011;40065;49.894;10.358;2022-08-25T06:09:41;12.68;;;7.60;;
54157;SDS011;40065;49.894;10.358;2022-08-25T06:14:46;17.40;;;9.57;;
54157;SDS011;40065;49.894;10.358;2022-08-25T06:19:49;9.02;;;7.28;;
54157;SDS011;40065;49.894;10.358;2022-08-25T06:24:51;14.00;;;8.40;;
54157;SDS011;40065;49.894;10.358;2022-08-25T06:29:53;11.00;;;7.60;;
54157;SDS011;40065;49.894;10.358;2022-08-25T06:34:56;9.70;;;7.88;;
54157;SDS011;40065;49.894;10.358;2022-08-25T06:39:59;15.15;;;7.95;;
54157;SDS011;40065;49.894;10.358;2022-08-25T06:45:01;14.05;;;7.45;;
54157;SDS011;40065;49.894;10.358;2022-08-25T06:50:03;17.00;;;8.55;;
54157;SDS011;40065;49.894;10.358;2022-08-25T06:55:06;19.17;;;8.73;;
54157;SDS011;40065;49.894;10.358;2022-08-25T07:00:08;12.68;;;8.80;;
54157;SDS011;40065;49.894;10.358;2022-08-25T07:05:12;11.43;;;8.43;;
54157;SDS011;40065;49.894;10.358;2022-08-25T07:10:33;10.23;;;8.30;;
54157;SDS011;40065;49.894;10.358;2022-08-25T07:15:37;11.77;;;8.63;;
54157;SDS011;40065;49.894;10.358;2022-08-25T07:20:40;11.48;;;8.43;;
54157;SDS011;40065;49.894;10.358;2022-08-25T07:25:42;11.57;;;7.45;;
54157;SDS011;40065;49.894;10.358;2022-08-25T07:30:44;12.53;;;8.90;;
54157;SDS011;40065;49.894;10.358;2022-08-25T07:35:52;10.57;;;8.13;;
54157;SDS011;40065;49.894;10.358;2022-08-25T07:41:00;9.73;;;8.13;;
54157;SDS011;40065;49.894;10.358;2022-08-25T07:46:05;11.30;;;8.98;;
54157;SDS011;40065;49.894;10.358;2022-08-25T07:51:08;14.75;;;8.65;;
54157;SDS011;40065;49.894;10.358;2022-08-25T07:56:11;12.88;;;8.55;;
54157;SDS011;40065;49.894;10.358;2022-08-25T08:01:20;11.57;;;8.38;;
54157;SDS011;40065;49.894;10.358;2022-08-25T08:06:23;10.65;;;8.93;;
54157;SDS011;40065;49.894;10.358;2022-08-25T08:11:27;12.93;;;7.95;;
54157;SDS011;40065;49.894;10.358;2022-08-25T08:16:45;9.65;;;7.65;;
54157;SDS011;40065;49.894;10.358;2022-08-25T08:21:47;10.00;;;7.68;;
54157;SDS011;40065;49.894;10.358;2022-08-25T08:26:52;10.48;;;7.15;;
54157;SDS011;40065;49.894;10.358;2022-08-25T08:31:59;11.45;;;7.47;;
54157;SDS011;40065;49.894;10.358;2022-08-25T08:37:03;10.40;;;8.02;;
54157;SDS011;40065;49.894;10.358;2022-08-25T08:42:10;9.18;;;7.15;;
54157;SDS011;40065;49.894;10.358;2022-08-25T08:57:44;7.70;;;6.35;;
54157;SDS011;40065;49.894;10.358;2022-08-25T09:02:59;11.07;;;6.75;;
54157;SDS011;40065;49.894;10.358;2022-08-25T09:08:09;7.47;;;6.03;;
54157;SDS011;40065;49.894;10.358;2022-08-25T09:13:17;7.95;;;6.32;;
54157;SDS011;40065;49.894;10.358;2022-08-25T09:18:45;8.30;;;6.03;;
54157;SDS011;40065;49.894;10.358;2022-08-25T09:35:00;13.10;;;6.57;;
54157;SDS011;40065;49.894;10.358;2022-08-25T09:40:03;6.68;;;5.55;;
54157;SDS011;40065;49.894;10.358;2022-08-25T09:45:06;8.45;;;6.35;;
54157;SDS011;40065;49.894;10.358;2022-08-25T09:50:15;8.65;;;6.20;;
54157;SDS011;40065;49.894;10.358;2022-08-25T09:55:22;6.03;;;4.80;;
54157;SDS011;40065;49.894;10.358;2022-08-25T10:00:29;7.78;;;5.70;;
54157;SDS011;40065;49.894;10.358;2022-08-25T10:06:19;8.45;;;5.40;;
54157;SDS011;40065;49.894;10.358;2022-08-25T10:10:57;6.25;;;5.03;;
54157;SDS011;40065;49.894;10.358;2022-08-25T10:16:02;5.90;;;4.30;;
54157;SDS011;40065;49.894;10.358;2022-08-25T10:21:24;6.15;;;5.10;;
54157;SDS011;40065;49.894;10.358;2022-08-25T10:26:43;5.93;;;4.70;;
54157;SDS011;40065;49.894;10.358;2022-08-25T10:32:02;4.90;;;4.40;;
54157;SDS011;40065;49.894;10.358;2022-08-25T10:47:46;3.65;;;3.10;;
54157;SDS011;40065;49.894;10.358;2022-08-25T10:53:10;5.35;;;3.67;;
54157;SDS011;40065;49.894;10.358;2022-08-25T10:58:45;4.80;;;3.88;;
54157;SDS011;40065;49.894;10.358;2022-08-25T11:08:59;5.53;;;3.35;;
54157;SDS011;40065;49.894;10.358;2022-08-25T11:14:10;5.15;;;3.40;;
54157;SDS011;40065;49.894;10.358;2022-08-25T11:24:50;5.13;;;3.75;;
54157;SDS011;40065;49.894;10.358;2022-08-25T11:30:07;4.50;;;3.40;;
54157;SDS011;40065;49.894;10.358;2022-08-25T11:35:13;5.93;;;3.60;;
54157;SDS011;40065;49.894;10.358;2022-08-25T11:45:36;5.93;;;3.40;;
54157;SDS011;40065;49.894;10.358;2022-08-25T11:51:01;5.03;;;3.60;;
54157;SDS011;40065;49.894;10.358;2022-08-25T11:56:10;5.47;;;3.53;;
54157;SDS011;40065;49.894;10.358;2022-08-25T12:07:15;4.85;;;4.00;;
54157;SDS011;40065;49.894;10.358;2022-08-25T12:17:37;6.38;;;3.88;;
54157;SDS011;40065;49.894;10.358;2022-08-25T12:22:40;10.80;;;4.47;;
54157;SDS011;40065;49.894;10.358;2022-08-25T12:28:03;5.70;;;3.97;;
54157;SDS011;40065;49.894;10.358;2022-08-25T12:33:54;5.88;;;4.30;;
54157;SDS011;40065;49.894;10.358;2022-08-25T12:39:28;5.68;;;4.30;;
54157;SDS011;40065;49.894;10.358;2022-08-25T12:44:44;6.40;;;3.97;;
54157;SDS011;40065;49.894;10.358;2022-08-25T12:49:49;7.22;;;4.38;;
54157;SDS011;40065;49.894;10.358;2022-08-25T12:54:56;5.87;;;3.90;;
54157;SDS011;40065;49.894;10.358;2022-08-25T13:00:02;4.68;;;3.95;;
54157;SDS011;40065;49.894;10.358;2022-08-25T13:05:25;3.92;;;3.45;;
54157;SDS011;40065;49.894;10.358;2022-08-25T13:10:57;8.38;;;3.63;;
54157;SDS011;40065;49.894;10.358;2022-08-25T13:16:15;5.13;;;4.18;;
54157;SDS011;40065;49.894;10.358;2022-08-25T13:21:22;5.20;;;3.85;;
54157;SDS011;40065;49.894;10.358;2022-08-25T13:26:30;4.97;;;4.18;;
54157;SDS011;40065;49.894;10.358;2022-08-25T13:31:35;4.75;;;3.70;;
54157;SDS011;40065;49.894;10.358;2022-08-25T13:36:43;6.93;;;4.45;;
54157;SDS011;40065;49.894;10.358;2022-08-25T13:42:11;5.20;;;4.25;;
54157;SDS011;40065;49.894;10.358;2022-08-25T13:47:29;6.10;;;4.05;;
54157;SDS011;40065;49.894;10.358;2022-08-25T13:52:50;5.43;;;4.20;;
54157;SDS011;40065;49.894;10.358;2022-08-25T13:57:59;6.72;;;4.22;;
54157;SDS011;40065;49.894;10.358;2022-08-25T14:03:03;7.82;;;4.20;;
54157;SDS011;40065;49.894;10.358;2022-08-25T14:08:28;5.35;;;4.32;;
54157;SDS011;40065;49.894;10.358;2022-08-25T14:13:33;5.10;;;4.00;;
54157;SDS011;40065;49.894;10.358;2022-08-25T14:18:44;6.05;;;4.65;;
54157;SDS011;40065;49.894;10.358;2022-08-25T14:23:58;7.65;;;4.70;;
54157;SDS011;40065;49.894;10.358;2022-08-25T14:29:00;5.40;;;4.30;;
54157;SDS011;40065;49.894;10.358;2022-08-25T14:34:14;4.75;;;4.22;;
54157;SDS011;40065;49.894;10.358;2022-08-25T14:39:24;4.70;;;4.20;;
54157;SDS011;40065;49.894;10.358;2022-08-25T14:44:26;6.35;;;5.07;;
54157;SDS011;40065;49.894;10.358;2022-08-25T14:49:29;7.27;;;5.47;;
54157;SDS011;40065;49.894;10.358;2022-08-25T14:54:35;5.95;;;5.35;;
54157;SDS011;40065;49.894;10.358;2022-08-25T14:59:38;5.85;;;4.95;;
54157;SDS011;40065;49.894;10.358;2022-08-25T15:04:44;6.47;;;4.90;;
54157;SDS011;40065;49.894;10.358;2022-08-25T15:09:52;11.10;;;4.60;;
54157;SDS011;40065;49.894;10.358;2022-08-25T15:14:53;5.93;;;4.87;;
54157;SDS011;40065;49.894;10.358;2022-08-25T15:19:56;5.72;;;4.72;;
54157;SDS011;40065;49.894;10.358;2022-08-25T15:24:58;5.43;;;4.10;;
54157;SDS011;40065;49.894;10.358;2022-08-25T15:30:02;6.25;;;4.28;;
54157;SDS011;40065;49.894;10.358;2022-08-25T15:35:05;5.15;;;4.20;;
54157;SDS011;40065;49.894;10.358;2022-08-25T15:40:08;7.18;;;4.28;;
54157;SDS011;40065;49.894;10.358;2022-08-25T15:45:10;7.47;;;3.83;;
54157;SDS011;40065;49.894;10.358;2022-08-25T15:50:14;5.57;;;3.80;;
54157;SDS011;40065;49.894;10.358;2022-08-25T15:55:24;7.07;;;4.35;;
54157;SDS011;40065;49.894;10.358;2022-08-25T16:00:27;8.38;;;4.65;;
54157;SDS011;40065;49.894;10.358;2022-08-25T16:05:33;6.35;;;3.78;;
54157;SDS011;40065;49.894;10.358;2022-08-25T16:10:39;7.80;;;4.47;;
54157;SDS011;40065;49.894;10.358;2022-08-25T16:15:45;7.30;;;4.07;;
54157;SDS011;40065;49.894;10.358;2022-08-25T16:20:54;11.13;;;4.13;;
54157;SDS011;40065;49.894;10.358;2022-08-25T16:25:56;7.83;;;3.93;;
54157;SDS011;40065;49.894;10.358;2022-08-25T16:30:58;6.28;;;3.97;;
54157;SDS011;40065;49.894;10.358;2022-08-25T16:36:05;7.15;;;4.63;;
54157;SDS011;40065;49.894;10.358;2022-08-25T16:41:09;4.60;;;4.00;;
54157;SDS011;40065;49.894;10.358;2022-08-25T16:46:14;4.80;;;3.83;;
54157;SDS011;40065;49.894;10.358;2022-08-25T16:51:18;8.73;;;4.55;;
54157;SDS011;40065;49.894;10.358;2022-08-25T16:56:31;5.10;;;3.72;;
54157;SDS011;40065;49.894;10.358;2022-08-25T17:01:35;6.50;;;4.30;;
54157;SDS011;40065;49.894;10.358;2022-08-25T17:06:39;6.82;;;3.92;;
54157;SDS011;40065;49.894;10.358;2022-08-25T17:11:52;6.45;;;3.63;;
54157;SDS011;40065;49.894;10.358;2022-08-25T17:16:57;6.43;;;4.00;;
54157;SDS011;40065;49.894;10.358;2022-08-25T17:21:59;6.70;;;3.70;;
54157;SDS011;40065;49.894;10.358;2022-08-25T17:27:00;5.03;;;3.53;;
54157;SDS011;40065;49.894;10.358;2022-08-25T17:32:02;6.00;;;3.80;;
54157;SDS011;40065;49.894;10.358;2022-08-25T17:37:05;10.40;;;4.15;;
54157;SDS011;40065;49.894;10.358;2022-08-25T17:42:07;8.47;;;4.30;;
54157;SDS011;40065;49.894;10.358;2022-08-25T17:47:09;5.03;;;4.22;;
54157;SDS011;40065;49.894;10.358;2022-08-25T17:52:11;6.53;;;4.53;;
54157;SDS011;40065;49.894;10.358;2022-08-25T17:57:13;5.90;;;4.17;;
54157;SDS011;40065;49.894;10.358;2022-08-25T18:02:16;9.65;;;5.00;;
54157;SDS011;40065;49.894;10.358;2022-08-25T18:07:18;7.07;;;4.20;;
54157;SDS011;40065;49.894;10.358;2022-08-25T18:12:19;7.05;;;4.40;;
54157;SDS011;40065;49.894;10.358;2022-08-25T18:17:27;7.40;;;4.10;;
54157;SDS011;40065;49.894;10.358;2022-08-25T18:22:29;7.28;;;4.60;;
54157;SDS011;40065;49.894;10.358;2022-08-25T18:27:33;6.95;;;4.65;;
54157;SDS011;40065;49.894;10.358;2022-08-25T18:32:35;7.53;;;5.03;;
54157;SDS011;40065;49.894;10.358;2022-08-25T18:37:37;5.95;;;4.35;;
54157;SDS011;40065;49.894;10.358;2022-08-25T18:43:00;6.65;;;4.75;;
54157;SDS011;40065;49.894;10.358;2022-08-25T18:48:04;4.75;;;4.03;;
54157;SDS011;40065;49.894;10.358;2022-08-25T18:53:07;5.73;;;3.80;;
54157;SDS011;40065;49.894;10.358;2022-08-25T18:58:10;5.22;;;4.22;;
54157;SDS011;40065;49.894;10.358;2022-08-25T19:03:13;5.67;;;4.40;;
54157;SDS011;40065;49.894;10.358;2022-08-25T19:08:16;7.85;;;5.45;;
54157;SDS011;40065;49.894;10.358;2022-08-25T19:13:22;7.18;;;5.00;;
54157;SDS011;40065;49.894;10.358;2022-08-25T19:18:23;8.45;;;4.80;;
54157;SDS011;40065;49.894;10.358;2022-08-25T19:23:29;7.03;;;5.20;;
54157;SDS011;40065;49.894;10.358;2022-08-25T19:28:33;5.97;;;4.78;;
54157;SDS011;40065;49.894;10.358;2022-08-25T19:33:36;5.95;;;4.75;;
54157;SDS011;40065;49.894;10.358;2022-08-25T19:38:45;7.38;;;5.32;;
54157;SDS011;40065;49.894;10.358;2022-08-25T19:43:48;7.43;;;5.05;;
54157;SDS011;40065;49.894;10.358;2022-08-25T19:48:57;7.05;;;5.38;;
54157;SDS011;40065;49.894;10.358;2022-08-25T19:54:01;6.20;;;5.05;;
54157;SDS011;40065;49.894;10.358;2022-08-25T19:59:03;10.82;;;5.32;;
54157;SDS011;40065;49.894;10.358;2022-08-25T20:04:05;7.85;;;5.07;;
54157;SDS011;40065;49.894;10.358;2022-08-25T20:09:07;9.23;;;6.25;;
54157;SDS011;40065;49.894;10.358;2022-08-25T20:14:30;6.35;;;5.40;;
54157;SDS011;40065;49.894;10.358;2022-08-25T20:19:36;7.50;;;4.78;;
54157;SDS011;40065;49.894;10.358;2022-08-25T20:24:39;7.38;;;5.03;;
54157;SDS011;40065;49.894;10.358;2022-08-25T20:29:56;8.68;;;5.68;;
54157;SDS011;40065;49.894;10.358;2022-08-25T20:34:59;6.88;;;5.45;;
54157;SDS011;40065;49.894;10.358;2022-08-25T20:40:02;7.65;;;5.57;;
54157;SDS011;40065;49.894;10.358;2022-08-25T20:45:05;7.63;;;5.30;;
54157;SDS011;40065;49.894;10.358;2022-08-25T20:50:08;6.88;;;5.32;;
54157;SDS011;40065;49.894;10.358;2022-08-25T20:55:10;8.75;;;5.90;;
54157;SDS011;40065;49.894;10.358;2022-08-25T21:00:12;7.63;;;6.07;;
54157;SDS011;40065;49.894;10.358;2022-08-25T21:05:15;7.82;;;6.68;;
54157;SDS011;40065;49.894;10.358;2022-08-25T21:10:17;7.82;;;5.72;;
54157;SDS011;40065;49.894;10.358;2022-08-25T21:15:19;9.35;;;6.25;;
54157;SDS011;40065;49.894;10.358;2022-08-25T21:20:22;6.72;;;5.85;;
54157;SDS011;40065;49.894;10.358;2022-08-25T21:25:24;7.95;;;5.85;;
54157;SDS011;40065;49.894;10.358;2022-08-25T21:30:26;8.60;;;5.65;;
54157;SDS011;40065;49.894;10.358;2022-08-25T21:35:28;7.72;;;5.78;;
54157;SDS011;40065;49.894;10.358;2022-08-25T21:40:32;7.38;;;5.88;;
54157;SDS011;40065;49.894;10.358;2022-08-25T21:45:37;5.68;;;5.10;;
54157;SDS011;40065;49.894;10.358;2022-08-25T21:50:47;6.60;;;5.20;;
54157;SDS011;40065;49.894;10.358;2022-08-25T21:55:49;8.10;;;4.85;;
54157;SDS011;40065;49.894;10.358;2022-08-25T22:00:50;6.43;;;5.05;;
54157;SDS011;40065;49.894;10.358;2022-08-25T22:05:53;5.25;;;4.65;;
54157;SDS011;40065;49.894;10.358;2022-08-25T22:10:55;8.50;;;4.90;;
54157;SDS011;40065;49.894;10.358;2022-08-25T22:15:58;7.10;;;5.18;;
54157;SDS011;40065;49.894;10.358;2022-08-25T22:21:00;6.03;;;4.90;;
54157;SDS011;40065;49.894;10.358;2022-08-25T22:26:09;7.18;;;5.60;;
54157;SDS011;40065;49.894;10.358;2022-08-25T22:31:11;6.32;;;5.15;;
54157;SDS011;40065;49.894;10.358;2022-08-25T22:36:28;6.65;;;5.18;;
54157;SDS011;40065;49.894;10.358;2022-08-25T22:41:32;7.70;;;5.60;;
54157;SDS011;40065;49.894;10.358;2022-08-25T22:46:34;7.25;;;5.45;;
54157;SDS011;40065;49.894;10.358;2022-08-25T22:51:36;5.40;;;4.65;;
54157;SDS011;40065;49.894;10.358;2022-08-25T22:56:38;6.53;;;5.30;;
54157;SDS011;40065;49.894;10.358;2022-08-25T23:01:41;6.57;;;5.22;;
54157;SDS011;40065;49.894;10.358;2022-08-25T23:06:44;6.05;;;4.93;;
54157;SDS011;40065;49.894;10.358;2022-08-25T23:11:47;6.68;;;5.53;;
54157;SDS011;40065;49.894;10.358;2022-08-25T23:16:52;7.22;;;5.40;;
54157;SDS011;40065;49.894;10.358;2022-08-25T23:21:56;7.25;;;4.90;;
54157;SDS011;40065;49.894;10.358;2022-08-25T23:27:11;8.50;;;5.80;;
54157;SDS011;40065;49.894;10.358;2022-08-25T23:32:17;6.43;;;5.68;;
54157;SDS011;40065;49.894;10.358;2022-08-25T23:37:18;6.03;;;4.95;;
54157;SDS011;40065;49.894;10.358;2022-08-25T23:42:20;5.93;;;4.82;;
54157;SDS011;40065;49.894;10.358;2022-08-25T23:47:22;6.20;;;4.80;;
54157;SDS011;40065;49.894;10.358;2022-08-25T23:52:24;6.13;;;4.88;;
54157;SDS011;40065;49.894;10.358;2022-08-25T23:57:26;6.93;;;5.53;;
